Bapchule, Arizona
Current Conditions -  °F | °C
As of 8:47 PM on Tuesday 25 Nov 2014 (Local Time) from KCHD Reporting Station
Clear Clear  
Wind Chill: 50°   Ceiling: Unl
Heat Index: 50°   Visibility: 15mi
Dew Point: 21°   Wind: 0mph
Humidity: 32%   Direction: NA
Pressure: 30.3"   Gusts: NA
Location:  33.14°N, 111.87°W
Report Text: KCHD 260347Z 00000KT 15SM SKC 10/M06 A3030 RMK LAST
Loading
Personal Weather Stations






























Interactive Weather Map New forecast layout! Learn more

10-Day Weather Forecast

Advertisements
Track Severe Weather on mobile